sensor_id;sensor_type;location;lat;lon;timestamp;temperature;humidity
12874;DHT22;6505;51.114;13.128;2023-01-10T00:01:43;13.90;52.40
12874;DHT22;6505;51.114;13.128;2023-01-10T00:04:11;14.00;52.50
12874;DHT22;6505;51.114;13.128;2023-01-10T00:06:41;14.00;52.50
12874;DHT22;6505;51.114;13.128;2023-01-10T00:09:09;13.90;52.30
12874;DHT22;6505;51.114;13.128;2023-01-10T00:11:37;13.90;52.40
12874;DHT22;6505;51.114;13.128;2023-01-10T00:14:25;13.90;52.30
12874;DHT22;6505;51.114;13.128;2023-01-10T00:16:54;14.00;52.50
12874;DHT22;6505;51.114;13.128;2023-01-10T00:19:22;13.90;52.30
12874;DHT22;6505;51.114;13.128;2023-01-10T00:21:51;14.00;52.30
12874;DHT22;6505;51.114;13.128;2023-01-10T00:24:20;13.90;52.20
12874;DHT22;6505;51.114;13.128;2023-01-10T00:26:50;13.90;52.20
12874;DHT22;6505;51.114;13.128;2023-01-10T00:29:19;13.90;52.20
12874;DHT22;6505;51.114;13.128;2023-01-10T00:31:49;13.90;52.20
12874;DHT22;6505;51.114;13.128;2023-01-10T00:34:16;13.90;52.10
12874;DHT22;6505;51.114;13.128;2023-01-10T00:36:45;13.90;52.20
12874;DHT22;6505;51.114;13.128;2023-01-10T00:39:15;13.90;52.20
12874;DHT22;6505;51.114;13.128;2023-01-10T00:41:45;13.90;52.30
12874;DHT22;6505;51.114;13.128;2023-01-10T00:44:31;13.90;52.20
12874;DHT22;6505;51.114;13.128;2023-01-10T00:46:59;13.90;52.20
12874;DHT22;6505;51.114;13.128;2023-01-10T00:49:26;13.90;52.20
12874;DHT22;6505;51.114;13.128;2023-01-10T00:51:54;14.00;52.30
12874;DHT22;6505;51.114;13.128;2023-01-10T00:54:25;13.90;52.30
12874;DHT22;6505;51.114;13.128;2023-01-10T00:56:53;13.90;52.30
12874;DHT22;6505;51.114;13.128;2023-01-10T00:59:21;13.90;52.30
12874;DHT22;6505;51.114;13.128;2023-01-10T01:01:50;14.00;52.50
12874;DHT22;6505;51.114;13.128;2023-01-10T01:04:19;14.00;52.50
12874;DHT22;6505;51.114;13.128;2023-01-10T01:06:47;14.00;52.40
12874;DHT22;6505;51.114;13.128;2023-01-10T01:09:16;13.90;52.30
12874;DHT22;6505;51.114;13.128;2023-01-10T01:11:45;13.90;52.30
12874;DHT22;6505;51.114;13.128;2023-01-10T01:14:13;13.90;52.30
12874;DHT22;6505;51.114;13.128;2023-01-10T01:16:41;13.90;52.30
12874;DHT22;6505;51.114;13.128;2023-01-10T01:19:09;14.00;52.50
12874;DHT22;6505;51.114;13.128;2023-01-10T01:21:38;13.90;52.40
12874;DHT22;6505;51.114;13.128;2023-01-10T01:24:06;14.00;52.40
12874;DHT22;6505;51.114;13.128;2023-01-10T01:26:35;14.00;52.50
12874;DHT22;6505;51.114;13.128;2023-01-10T01:29:04;14.00;52.40
12874;DHT22;6505;51.114;13.128;2023-01-10T01:31:32;13.90;52.30
12874;DHT22;6505;51.114;13.128;2023-01-10T01:34:00;13.90;52.30
12874;DHT22;6505;51.114;13.128;2023-01-10T01:36:28;13.90;52.30
12874;DHT22;6505;51.114;13.128;2023-01-10T01:38:56;14.00;52.40
12874;DHT22;6505;51.114;13.128;2023-01-10T01:41:24;14.00;52.40
12874;DHT22;6505;51.114;13.128;2023-01-10T01:44:13;14.00;52.50
12874;DHT22;6505;51.114;13.128;2023-01-10T01:46:44;13.90;52.50
12874;DHT22;6505;51.114;13.128;2023-01-10T01:49:18;14.00;52.50
12874;DHT22;6505;51.114;13.128;2023-01-10T01:51:54;14.00;53.20
12874;DHT22;6505;51.114;13.128;2023-01-10T01:54:26;13.90;52.50
12874;DHT22;6505;51.114;13.128;2023-01-10T01:57:00;13.90;52.50
12874;DHT22;6505;51.114;13.128;2023-01-10T01:59:33;14.00;52.60
12874;DHT22;6505;51.114;13.128;2023-01-10T02:02:07;13.90;52.50
12874;DHT22;6505;51.114;13.128;2023-01-10T02:04:42;14.00;52.60
12874;DHT22;6505;51.114;13.128;2023-01-10T02:07:17;14.00;52.60
12874;DHT22;6505;51.114;13.128;2023-01-10T02:09:49;14.00;52.60
12874;DHT22;6505;51.114;13.128;2023-01-10T02:12:19;13.90;52.60
12874;DHT22;6505;51.114;13.128;2023-01-10T02:14:50;13.90;52.40
12874;DHT22;6505;51.114;13.128;2023-01-10T02:17:19;13.90;52.60
12874;DHT22;6505;51.114;13.128;2023-01-10T02:19:50;13.90;52.60
12874;DHT22;6505;51.114;13.128;2023-01-10T02:22:58;14.00;52.70
12874;DHT22;6505;51.114;13.128;2023-01-10T02:26:21;14.00;52.80
12874;DHT22;6505;51.114;13.128;2023-01-10T02:32:38;13.90;52.60
12874;DHT22;6505;51.114;13.128;2023-01-10T02:35:35;13.90;52.70
12874;DHT22;6505;51.114;13.128;2023-01-10T02:38:22;13.90;52.70
12874;DHT22;6505;51.114;13.128;2023-01-10T02:41:03;13.90;52.70
12874;DHT22;6505;51.114;13.128;2023-01-10T02:43:40;13.90;52.70
12874;DHT22;6505;51.114;13.128;2023-01-10T02:46:16;13.90;52.70
12874;DHT22;6505;51.114;13.128;2023-01-10T02:48:52;13.90;52.80
12874;DHT22;6505;51.114;13.128;2023-01-10T02:51:23;13.90;52.90
12874;DHT22;6505;51.114;13.128;2023-01-10T02:53:57;13.90;52.90
12874;DHT22;6505;51.114;13.128;2023-01-10T02:56:50;13.90;52.90
12874;DHT22;6505;51.114;13.128;2023-01-10T03:00:02;13.90;53.00
12874;DHT22;6505;51.114;13.128;2023-01-10T03:02:55;13.90;52.90
12874;DHT22;6505;51.114;13.128;2023-01-10T03:05:41;13.90;52.90
12874;DHT22;6505;51.114;13.128;2023-01-10T03:08:26;13.90;52.90
12874;DHT22;6505;51.114;13.128;2023-01-10T03:11:01;13.90;52.90
12874;DHT22;6505;51.114;13.128;2023-01-10T03:13:36;13.90;52.90
12874;DHT22;6505;51.114;13.128;2023-01-10T03:16:14;13.90;53.00
12874;DHT22;6505;51.114;13.128;2023-01-10T03:18:49;13.90;53.10
12874;DHT22;6505;51.114;13.128;2023-01-10T03:21:24;13.90;53.10
12874;DHT22;6505;51.114;13.128;2023-01-10T03:23:57;13.90;53.10
12874;DHT22;6505;51.114;13.128;2023-01-10T03:26:41;13.90;53.80
12874;DHT22;6505;51.114;13.128;2023-01-10T03:29:18;13.90;53.10
12874;DHT22;6505;51.114;13.128;2023-01-10T03:31:53;13.90;53.10
12874;DHT22;6505;51.114;13.128;2023-01-10T03:34:24;13.90;53.10
12874;DHT22;6505;51.114;13.128;2023-01-10T03:37:00;13.90;53.10
12874;DHT22;6505;51.114;13.128;2023-01-10T03:39:41;13.90;53.10
12874;DHT22;6505;51.114;13.128;2023-01-10T03:42:20;13.90;53.10
12874;DHT22;6505;51.114;13.128;2023-01-10T03:44:58;13.90;53.10
12874;DHT22;6505;51.114;13.128;2023-01-10T03:47:32;13.90;53.10
12874;DHT22;6505;51.114;13.128;2023-01-10T03:50:11;13.90;53.10
12874;DHT22;6505;51.114;13.128;2023-01-10T03:52:43;13.90;53.10
12874;DHT22;6505;51.114;13.128;2023-01-10T03:55:13;13.90;53.00
12874;DHT22;6505;51.114;13.128;2023-01-10T03:57:44;13.90;53.10
12874;DHT22;6505;51.114;13.128;2023-01-10T04:00:13;13.90;53.00
12874;DHT22;6505;51.114;13.128;2023-01-10T04:02:43;13.90;53.10
12874;DHT22;6505;51.114;13.128;2023-01-10T04:05:11;13.90;53.10
12874;DHT22;6505;51.114;13.128;2023-01-10T04:07:39;13.90;53.10
12874;DHT22;6505;51.114;13.128;2023-01-10T04:10:09;13.90;53.00
12874;DHT22;6505;51.114;13.128;2023-01-10T04:12:38;13.90;53.10
12874;DHT22;6505;51.114;13.128;2023-01-10T04:15:06;13.90;53.10
12874;DHT22;6505;51.114;13.128;2023-01-10T04:17:35;13.90;53.10
12874;DHT22;6505;51.114;13.128;2023-01-10T04:20:03;13.90;53.00
12874;DHT22;6505;51.114;13.128;2023-01-10T04:22:32;13.90;53.20
12874;DHT22;6505;51.114;13.128;2023-01-10T04:24:59;13.90;53.10
12874;DHT22;6505;51.114;13.128;2023-01-10T04:27:29;13.90;53.10
12874;DHT22;6505;51.114;13.128;2023-01-10T04:29:56;13.90;53.10
12874;DHT22;6505;51.114;13.128;2023-01-10T04:32:24;13.90;53.10
12874;DHT22;6505;51.114;13.128;2023-01-10T04:34:52;13.90;53.10
12874;DHT22;6505;51.114;13.128;2023-01-10T04:37:20;13.90;53.10
12874;DHT22;6505;51.114;13.128;2023-01-10T04:39:48;13.90;53.10
12874;DHT22;6505;51.114;13.128;2023-01-10T04:42:16;13.90;53.00
12874;DHT22;6505;51.114;13.128;2023-01-10T04:44:46;14.00;53.20
12874;DHT22;6505;51.114;13.128;2023-01-10T04:47:13;13.90;53.10
12874;DHT22;6505;51.114;13.128;2023-01-10T04:49:41;13.90;53.10
12874;DHT22;6505;51.114;13.128;2023-01-10T04:52:09;13.90;53.10
12874;DHT22;6505;51.114;13.128;2023-01-10T04:54:37;13.90;53.10
12874;DHT22;6505;51.114;13.128;2023-01-10T04:57:05;13.90;53.00
12874;DHT22;6505;51.114;13.128;2023-01-10T04:59:33;14.00;53.10
12874;DHT22;6505;51.114;13.128;2023-01-10T05:02:02;13.90;52.90
12874;DHT22;6505;51.114;13.128;2023-01-10T05:04:30;13.90;53.10
12874;DHT22;6505;51.114;13.128;2023-01-10T05:06:58;13.90;53.00
12874;DHT22;6505;51.114;13.128;2023-01-10T05:09:26;13.90;53.10
12874;DHT22;6505;51.114;13.128;2023-01-10T05:11:54;13.90;53.10
12874;DHT22;6505;51.114;13.128;2023-01-10T05:14:22;13.90;53.00
12874;DHT22;6505;51.114;13.128;2023-01-10T05:16:50;13.90;53.00
12874;DHT22;6505;51.114;13.128;2023-01-10T05:19:19;13.90;53.00
12874;DHT22;6505;51.114;13.128;2023-01-10T05:21:47;13.90;53.00
12874;DHT22;6505;51.114;13.128;2023-01-10T05:24:15;13.90;53.00
12874;DHT22;6505;51.114;13.128;2023-01-10T05:26:43;13.90;53.00
12874;DHT22;6505;51.114;13.128;2023-01-10T05:29:11;13.90;52.90
12874;DHT22;6505;51.114;13.128;2023-01-10T05:31:40;13.90;53.00
12874;DHT22;6505;51.114;13.128;2023-01-10T05:34:11;14.00;53.00
12874;DHT22;6505;51.114;13.128;2023-01-10T05:36:40;13.90;53.00
12874;DHT22;6505;51.114;13.128;2023-01-10T05:39:08;13.90;52.90
12874;DHT22;6505;51.114;13.128;2023-01-10T05:41:36;13.90;52.90
12874;DHT22;6505;51.114;13.128;2023-01-10T05:44:04;13.90;52.90
12874;DHT22;6505;51.114;13.128;2023-01-10T05:46:32;13.90;53.00
12874;DHT22;6505;51.114;13.128;2023-01-10T05:49:00;13.90;53.10
12874;DHT22;6505;51.114;13.128;2023-01-10T05:51:29;13.90;52.90
12874;DHT22;6505;51.114;13.128;2023-01-10T05:53:58;13.90;53.00
12874;DHT22;6505;51.114;13.128;2023-01-10T05:56:26;13.90;53.00
12874;DHT22;6505;51.114;13.128;2023-01-10T05:58:55;13.90;53.00
12874;DHT22;6505;51.114;13.128;2023-01-10T06:01:33;13.90;53.00
12874;DHT22;6505;51.114;13.128;2023-01-10T06:04:01;13.90;52.90
12874;DHT22;6505;51.114;13.128;2023-01-10T06:06:29;14.00;53.00
12874;DHT22;6505;51.114;13.128;2023-01-10T06:08:58;13.90;53.10
12874;DHT22;6505;51.114;13.128;2023-01-10T06:11:26;13.90;53.10
12874;DHT22;6505;51.114;13.128;2023-01-10T06:13:55;13.90;53.30
12874;DHT22;6505;51.114;13.128;2023-01-10T06:16:24;13.90;53.40
12874;DHT22;6505;51.114;13.128;2023-01-10T06:18:52;13.90;53.40
12874;DHT22;6505;51.114;13.128;2023-01-10T06:21:20;13.90;53.50
12874;DHT22;6505;51.114;13.128;2023-01-10T06:23:48;14.00;53.60
12874;DHT22;6505;51.114;13.128;2023-01-10T06:26:17;13.90;53.70
12874;DHT22;6505;51.114;13.128;2023-01-10T06:28:45;13.90;53.90
12874;DHT22;6505;51.114;13.128;2023-01-10T06:31:13;13.90;53.90
12874;DHT22;6505;51.114;13.128;2023-01-10T06:33:41;13.90;54.00
12874;DHT22;6505;51.114;13.128;2023-01-10T06:36:09;13.90;54.00
12874;DHT22;6505;51.114;13.128;2023-01-10T06:38:37;13.90;54.00
12874;DHT22;6505;51.114;13.128;2023-01-10T06:41:05;13.90;54.00
12874;DHT22;6505;51.114;13.128;2023-01-10T06:43:41;13.90;54.00
12874;DHT22;6505;51.114;13.128;2023-01-10T06:46:12;13.90;54.10
12874;DHT22;6505;51.114;13.128;2023-01-10T06:48:42;13.90;54.10
12874;DHT22;6505;51.114;13.128;2023-01-10T06:51:12;13.90;54.00
12874;DHT22;6505;51.114;13.128;2023-01-10T06:53:41;13.90;54.10
12874;DHT22;6505;51.114;13.128;2023-01-10T06:56:10;13.90;54.10
12874;DHT22;6505;51.114;13.128;2023-01-10T06:58:38;13.90;54.00
12874;DHT22;6505;51.114;13.128;2023-01-10T07:01:12;13.90;54.00
12874;DHT22;6505;51.114;13.128;2023-01-10T07:03:41;13.80;54.00
12874;DHT22;6505;51.114;13.128;2023-01-10T07:06:09;13.90;53.90
12874;DHT22;6505;51.114;13.128;2023-01-10T07:08:38;13.90;54.00
12874;DHT22;6505;51.114;13.128;2023-01-10T07:11:08;13.90;54.10
12874;DHT22;6505;51.114;13.128;2023-01-10T07:13:36;13.80;54.00
12874;DHT22;6505;51.114;13.128;2023-01-10T07:16:08;13.80;54.00
12874;DHT22;6505;51.114;13.128;2023-01-10T07:18:39;13.90;54.10
12874;DHT22;6505;51.114;13.128;2023-01-10T07:21:08;13.80;54.00
12874;DHT22;6505;51.114;13.128;2023-01-10T07:23:37;13.90;54.20
12874;DHT22;6505;51.114;13.128;2023-01-10T07:26:07;13.90;54.20
12874;DHT22;6505;51.114;13.128;2023-01-10T07:28:37;13.80;54.30
12874;DHT22;6505;51.114;13.128;2023-01-10T07:31:05;13.90;54.30
12874;DHT22;6505;51.114;13.128;2023-01-10T07:33:34;13.80;54.30
12874;DHT22;6505;51.114;13.128;2023-01-10T07:36:02;13.90;54.50
12874;DHT22;6505;51.114;13.128;2023-01-10T07:38:31;13.90;55.20
12874;DHT22;6505;51.114;13.128;2023-01-10T07:41:00;13.80;55.10
12874;DHT22;6505;51.114;13.128;2023-01-10T07:43:29;13.80;54.40
12874;DHT22;6505;51.114;13.128;2023-01-10T07:45:57;13.90;54.60
12874;DHT22;6505;51.114;13.128;2023-01-10T07:48:26;13.80;54.60
12874;DHT22;6505;51.114;13.128;2023-01-10T07:50:57;13.80;54.70
12874;DHT22;6505;51.114;13.128;2023-01-10T07:53:26;13.90;54.80
12874;DHT22;6505;51.114;13.128;2023-01-10T07:55:58;13.80;54.80
12874;DHT22;6505;51.114;13.128;2023-01-10T07:58:28;13.90;54.80
12874;DHT22;6505;51.114;13.128;2023-01-10T08:00:56;13.80;54.70
12874;DHT22;6505;51.114;13.128;2023-01-10T08:03:25;13.80;54.50
12874;DHT22;6505;51.114;13.128;2023-01-10T08:05:59;13.80;54.50
12874;DHT22;6505;51.114;13.128;2023-01-10T08:08:28;13.80;54.60
12874;DHT22;6505;51.114;13.128;2023-01-10T08:10:57;13.80;54.70
12874;DHT22;6505;51.114;13.128;2023-01-10T08:13:28;13.80;54.60
12874;DHT22;6505;51.114;13.128;2023-01-10T08:15:56;13.80;54.70
12874;DHT22;6505;51.114;13.128;2023-01-10T08:18:25;13.80;54.80
12874;DHT22;6505;51.114;13.128;2023-01-10T08:20:54;13.80;54.90
12874;DHT22;6505;51.114;13.128;2023-01-10T08:23:24;13.80;55.10
12874;DHT22;6505;51.114;13.128;2023-01-10T08:25:52;13.90;55.20
12874;DHT22;6505;51.114;13.128;2023-01-10T08:28:20;13.80;55.20
12874;DHT22;6505;51.114;13.128;2023-01-10T08:30:48;13.80;55.40
12874;DHT22;6505;51.114;13.128;2023-01-10T08:33:21;13.80;55.50
12874;DHT22;6505;51.114;13.128;2023-01-10T08:35:50;13.80;55.50
12874;DHT22;6505;51.114;13.128;2023-01-10T08:38:18;13.90;55.70
12874;DHT22;6505;51.114;13.128;2023-01-10T08:40:47;13.90;55.80
12874;DHT22;6505;51.114;13.128;2023-01-10T08:43:15;13.80;55.80
12874;DHT22;6505;51.114;13.128;2023-01-10T08:45:43;13.80;55.90
12874;DHT22;6505;51.114;13.128;2023-01-10T08:48:11;13.80;56.00
12874;DHT22;6505;51.114;13.128;2023-01-10T08:50:39;13.80;56.10
12874;DHT22;6505;51.114;13.128;2023-01-10T08:53:08;13.80;56.80
12874;DHT22;6505;51.114;13.128;2023-01-10T08:55:37;13.80;56.10
12874;DHT22;6505;51.114;13.128;2023-01-10T08:58:07;13.80;56.20
12874;DHT22;6505;51.114;13.128;2023-01-10T09:00:36;13.80;56.40
12874;DHT22;6505;51.114;13.128;2023-01-10T09:03:05;13.80;56.30
12874;DHT22;6505;51.114;13.128;2023-01-10T09:05:33;13.80;56.40
12874;DHT22;6505;51.114;13.128;2023-01-10T09:08:02;13.80;56.30
12874;DHT22;6505;51.114;13.128;2023-01-10T09:10:30;13.90;56.40
12874;DHT22;6505;51.114;13.128;2023-01-10T09:12:58;13.80;56.10
12874;DHT22;6505;51.114;13.128;2023-01-10T09:15:30;13.80;56.30
12874;DHT22;6505;51.114;13.128;2023-01-10T09:18:01;13.90;56.30
12874;DHT22;6505;51.114;13.128;2023-01-10T09:20:33;13.80;56.20
12874;DHT22;6505;51.114;13.128;2023-01-10T09:23:06;13.90;56.40
12874;DHT22;6505;51.114;13.128;2023-01-10T09:25:36;13.90;56.40
12874;DHT22;6505;51.114;13.128;2023-01-10T09:28:04;13.90;56.30
12874;DHT22;6505;51.114;13.128;2023-01-10T09:30:34;13.90;56.40
12874;DHT22;6505;51.114;13.128;2023-01-10T09:33:03;13.90;56.30
12874;DHT22;6505;51.114;13.128;2023-01-10T09:35:34;13.90;56.20
12874;DHT22;6505;51.114;13.128;2023-01-10T09:38:05;13.90;56.20
12874;DHT22;6505;51.114;13.128;2023-01-10T09:40:46;13.90;56.00
12874;DHT22;6505;51.114;13.128;2023-01-10T09:43:28;13.90;56.00
12874;DHT22;6505;51.114;13.128;2023-01-10T09:46:10;14.00;56.60
12874;DHT22;6505;51.114;13.128;2023-01-10T09:48:51;13.90;56.40
12874;DHT22;6505;51.114;13.128;2023-01-10T09:51:32;13.90;55.80
12874;DHT22;6505;51.114;13.128;2023-01-10T09:54:05;13.90;56.00
12874;DHT22;6505;51.114;13.128;2023-01-10T09:56:39;14.00;56.10
12874;DHT22;6505;51.114;13.128;2023-01-10T09:59:12;14.00;56.00
12874;DHT22;6505;51.114;13.128;2023-01-10T10:01:46;14.00;56.20
12874;DHT22;6505;51.114;13.128;2023-01-10T10:04:20;14.00;56.10
12874;DHT22;6505;51.114;13.128;2023-01-10T10:06:53;13.90;56.10
12874;DHT22;6505;51.114;13.128;2023-01-10T10:09:24;14.00;55.90
12874;DHT22;6505;51.114;13.128;2023-01-10T10:12:09;14.00;56.10
12874;DHT22;6505;51.114;13.128;2023-01-10T10:14:59;13.90;56.00
12874;DHT22;6505;51.114;13.128;2023-01-10T10:17:42;14.00;56.00
12874;DHT22;6505;51.114;13.128;2023-01-10T10:20:25;14.00;55.90
12874;DHT22;6505;51.114;13.128;2023-01-10T10:23:12;14.00;56.00
12874;DHT22;6505;51.114;13.128;2023-01-10T10:26:03;14.00;56.00
12874;DHT22;6505;51.114;13.128;2023-01-10T10:28:55;14.00;55.90
12874;DHT22;6505;51.114;13.128;2023-01-10T10:31:55;14.00;56.00
12874;DHT22;6505;51.114;13.128;2023-01-10T10:34:34;14.00;56.00
12874;DHT22;6505;51.114;13.128;2023-01-10T10:37:11;14.00;55.80
12874;DHT22;6505;51.114;13.128;2023-01-10T10:39:47;14.00;55.80
12874;DHT22;6505;51.114;13.128;2023-01-10T10:42:19;14.00;55.80
12874;DHT22;6505;51.114;13.128;2023-01-10T10:44:53;14.00;55.70
12874;DHT22;6505;51.114;13.128;2023-01-10T10:47:27;14.00;55.90
12874;DHT22;6505;51.114;13.128;2023-01-10T10:50:07;14.10;55.80
12874;DHT22;6505;51.114;13.128;2023-01-10T10:52:46;14.10;55.70
12874;DHT22;6505;51.114;13.128;2023-01-10T10:55:15;14.10;55.40
12874;DHT22;6505;51.114;13.128;2023-01-10T10:57:45;14.10;55.30
12874;DHT22;6505;51.114;13.128;2023-01-10T11:00:27;14.10;55.10
12874;DHT22;6505;51.114;13.128;2023-01-10T11:02:59;14.10;54.90
12874;DHT22;6505;51.114;13.128;2023-01-10T11:05:36;14.10;54.80
12874;DHT22;6505;51.114;13.128;2023-01-10T11:08:09;14.10;54.90
12874;DHT22;6505;51.114;13.128;2023-01-10T11:10:40;14.10;54.80
12874;DHT22;6505;51.114;13.128;2023-01-10T11:13:16;14.10;54.80
12874;DHT22;6505;51.114;13.128;2023-01-10T11:15:51;14.10;54.80
12874;DHT22;6505;51.114;13.128;2023-01-10T11:18:23;14.10;54.50
12874;DHT22;6505;51.114;13.128;2023-01-10T11:20:56;14.10;54.60
12874;DHT22;6505;51.114;13.128;2023-01-10T11:23:36;14.10;54.60
12874;DHT22;6505;51.114;13.128;2023-01-10T11:26:10;14.10;54.70
12874;DHT22;6505;51.114;13.128;2023-01-10T11:28:51;14.10;54.70
12874;DHT22;6505;51.114;13.128;2023-01-10T11:31:30;14.10;54.70
12874;DHT22;6505;51.114;13.128;2023-01-10T11:34:01;14.20;54.70
12874;DHT22;6505;51.114;13.128;2023-01-10T11:36:52;14.20;54.70
12874;DHT22;6505;51.114;13.128;2023-01-10T11:39:21;14.20;54.50
12874;DHT22;6505;51.114;13.128;2023-01-10T11:41:49;14.20;54.40
12874;DHT22;6505;51.114;13.128;2023-01-10T11:44:22;14.20;54.30
12874;DHT22;6505;51.114;13.128;2023-01-10T11:46:54;14.20;54.30
12874;DHT22;6505;51.114;13.128;2023-01-10T11:49:27;14.20;54.40
12874;DHT22;6505;51.114;13.128;2023-01-10T11:52:04;14.30;54.50
12874;DHT22;6505;51.114;13.128;2023-01-10T11:54:34;14.20;54.30
12874;DHT22;6505;51.114;13.128;2023-01-10T11:57:06;14.30;54.10
12874;DHT22;6505;51.114;13.128;2023-01-10T11:59:49;14.20;53.90
12874;DHT22;6505;51.114;13.128;2023-01-10T12:02:22;14.20;53.70
12874;DHT22;6505;51.114;13.128;2023-01-10T12:04:53;14.20;53.50
12874;DHT22;6505;51.114;13.128;2023-01-10T12:07:26;14.20;53.40
12874;DHT22;6505;51.114;13.128;2023-01-10T12:09:55;14.30;53.40
12874;DHT22;6505;51.114;13.128;2023-01-10T12:12:26;14.30;53.30
12874;DHT22;6505;51.114;13.128;2023-01-10T12:14:56;14.20;53.00
12874;DHT22;6505;51.114;13.128;2023-01-10T12:17:27;14.30;53.00
12874;DHT22;6505;51.114;13.128;2023-01-10T12:19:59;14.30;52.90
12874;DHT22;6505;51.114;13.128;2023-01-10T12:22:32;14.30;52.50
12874;DHT22;6505;51.114;13.128;2023-01-10T12:25:13;14.30;52.60
12874;DHT22;6505;51.114;13.128;2023-01-10T12:27:45;14.30;52.50
12874;DHT22;6505;51.114;13.128;2023-01-10T12:30:20;14.30;52.40
12874;DHT22;6505;51.114;13.128;2023-01-10T12:32:57;14.30;52.40
12874;DHT22;6505;51.114;13.128;2023-01-10T12:35:37;14.30;52.40
12874;DHT22;6505;51.114;13.128;2023-01-10T12:38:19;14.30;52.40
12874;DHT22;6505;51.114;13.128;2023-01-10T12:41:08;14.30;52.50
12874;DHT22;6505;51.114;13.128;2023-01-10T12:44:02;14.30;52.50
12874;DHT22;6505;51.114;13.128;2023-01-10T12:46:41;14.30;52.50
12874;DHT22;6505;51.114;13.128;2023-01-10T12:49:35;14.30;52.50
12874;DHT22;6505;51.114;13.128;2023-01-10T12:52:19;14.30;53.20
12874;DHT22;6505;51.114;13.128;2023-01-10T12:54:56;14.30;52.40
12874;DHT22;6505;51.114;13.128;2023-01-10T12:57:29;14.30;52.40
12874;DHT22;6505;51.114;13.128;2023-01-10T13:00:02;14.30;52.50
12874;DHT22;6505;51.114;13.128;2023-01-10T13:02:38;14.30;52.50
12874;DHT22;6505;51.114;13.128;2023-01-10T13:05:17;14.30;52.40
12874;DHT22;6505;51.114;13.128;2023-01-10T13:07:48;14.30;52.30
12874;DHT22;6505;51.114;13.128;2023-01-10T13:10:20;14.30;52.40
12874;DHT22;6505;51.114;13.128;2023-01-10T13:12:54;14.30;52.40
12874;DHT22;6505;51.114;13.128;2023-01-10T13:15:28;14.40;52.20
12874;DHT22;6505;51.114;13.128;2023-01-10T13:18:00;14.40;52.10
12874;DHT22;6505;51.114;13.128;2023-01-10T13:20:36;14.30;52.00
12874;DHT22;6505;51.114;13.128;2023-01-10T13:23:28;14.40;52.30
12874;DHT22;6505;51.114;13.128;2023-01-10T13:26:03;14.30;52.00
12874;DHT22;6505;51.114;13.128;2023-01-10T13:28:36;14.40;52.30
12874;DHT22;6505;51.114;13.128;2023-01-10T13:31:21;14.30;52.20
12874;DHT22;6505;51.114;13.128;2023-01-10T13:33:54;14.40;52.10
12874;DHT22;6505;51.114;13.128;2023-01-10T13:36:26;14.40;52.80
12874;DHT22;6505;51.114;13.128;2023-01-10T13:38:58;14.40;52.00
12874;DHT22;6505;51.114;13.128;2023-01-10T13:45:23;14.40;52.10
12874;DHT22;6505;51.114;13.128;2023-01-10T13:48:03;14.40;52.00
12874;DHT22;6505;51.114;13.128;2023-01-10T13:51:05;14.40;52.00
12874;DHT22;6505;51.114;13.128;2023-01-10T13:53:43;14.40;52.00
12874;DHT22;6505;51.114;13.128;2023-01-10T13:56:29;14.40;52.10
12874;DHT22;6505;51.114;13.128;2023-01-10T13:59:04;14.40;52.10
12874;DHT22;6505;51.114;13.128;2023-01-10T14:01:58;14.40;52.00
12874;DHT22;6505;51.114;13.128;2023-01-10T14:04:49;14.30;51.90
12874;DHT22;6505;51.114;13.128;2023-01-10T14:07:25;14.40;52.00
12874;DHT22;6505;51.114;13.128;2023-01-10T14:09:58;14.40;51.80
12874;DHT22;6505;51.114;13.128;2023-01-10T14:12:33;14.40;51.80
12874;DHT22;6505;51.114;13.128;2023-01-10T14:15:19;14.40;51.70
12874;DHT22;6505;51.114;13.128;2023-01-10T14:17:57;14.40;51.70
12874;DHT22;6505;51.114;13.128;2023-01-10T14:20:29;14.40;51.60
12874;DHT22;6505;51.114;13.128;2023-01-10T14:23:06;14.40;51.60
12874;DHT22;6505;51.114;13.128;2023-01-10T14:25:44;14.40;51.60
12874;DHT22;6505;51.114;13.128;2023-01-10T14:28:21;14.40;51.60
12874;DHT22;6505;51.114;13.128;2023-01-10T14:30:59;14.40;51.60
12874;DHT22;6505;51.114;13.128;2023-01-10T14:33:33;14.40;51.60
12874;DHT22;6505;51.114;13.128;2023-01-10T14:36:07;14.30;51.50
12874;DHT22;6505;51.114;13.128;2023-01-10T14:38:43;14.40;51.60
12874;DHT22;6505;51.114;13.128;2023-01-10T14:41:17;14.40;51.60
12874;DHT22;6505;51.114;13.128;2023-01-10T14:43:53;14.40;51.60
12874;DHT22;6505;51.114;13.128;2023-01-10T14:46:28;14.30;51.70
12874;DHT22;6505;51.114;13.128;2023-01-10T14:49:21;14.40;51.70
12874;DHT22;6505;51.114;13.128;2023-01-10T14:51:51;14.30;51.70
12874;DHT22;6505;51.114;13.128;2023-01-10T14:54:26;14.30;51.60
12874;DHT22;6505;51.114;13.128;2023-01-10T14:56:55;14.40;51.60
12874;DHT22;6505;51.114;13.128;2023-01-10T14:59:24;14.30;51.50
12874;DHT22;6505;51.114;13.128;2023-01-10T15:01:55;14.30;51.60
12874;DHT22;6505;51.114;13.128;2023-01-10T15:04:28;14.30;51.70
12874;DHT22;6505;51.114;13.128;2023-01-10T15:06:59;14.40;51.70
12874;DHT22;6505;51.114;13.128;2023-01-10T15:09:30;14.30;51.60
12874;DHT22;6505;51.114;13.128;2023-01-10T15:12:01;14.30;51.60
12874;DHT22;6505;51.114;13.128;2023-01-10T15:14:31;14.30;51.60
12874;DHT22;6505;51.114;13.128;2023-01-10T15:17:01;14.30;51.70
12874;DHT22;6505;51.114;13.128;2023-01-10T15:19:34;14.30;51.80
12874;DHT22;6505;51.114;13.128;2023-01-10T15:25:05;14.30;51.90
12874;DHT22;6505;51.114;13.128;2023-01-10T15:27:34;14.30;51.90
12874;DHT22;6505;51.114;13.128;2023-01-10T15:30:10;14.30;51.90
12874;DHT22;6505;51.114;13.128;2023-01-10T15:32:44;14.30;51.90
12874;DHT22;6505;51.114;13.128;2023-01-10T15:35:17;14.30;52.60
12874;DHT22;6505;51.114;13.128;2023-01-10T15:37:55;14.30;51.90
12874;DHT22;6505;51.114;13.128;2023-01-10T15:40:29;14.30;51.80
12874;DHT22;6505;51.114;13.128;2023-01-10T15:43:22;14.30;51.70
12874;DHT22;6505;51.114;13.128;2023-01-10T15:45:52;14.30;51.80
12874;DHT22;6505;51.114;13.128;2023-01-10T15:48:27;14.30;51.70
12874;DHT22;6505;51.114;13.128;2023-01-10T15:51:00;14.30;51.70
12874;DHT22;6505;51.114;13.128;2023-01-10T15:53:52;14.30;51.70
12874;DHT22;6505;51.114;13.128;2023-01-10T15:56:26;14.30;51.70
12874;DHT22;6505;51.114;13.128;2023-01-10T15:58:57;14.30;51.60
12874;DHT22;6505;51.114;13.128;2023-01-10T16:01:27;14.30;51.60
12874;DHT22;6505;51.114;13.128;2023-01-10T16:03:57;14.30;51.60
12874;DHT22;6505;51.114;13.128;2023-01-10T16:06:31;14.20;51.50
12874;DHT22;6505;51.114;13.128;2023-01-10T16:09:03;14.30;51.40
12874;DHT22;6505;51.114;13.128;2023-01-10T16:11:37;14.30;51.50
12874;DHT22;6505;51.114;13.128;2023-01-10T16:14:30;14.20;51.50
12874;DHT22;6505;51.114;13.128;2023-01-10T16:16:59;14.30;51.40
12874;DHT22;6505;51.114;13.128;2023-01-10T16:19:27;14.20;51.30